createdAt,value
2023-10-09T00:02:15.430Z,18.60
2023-10-09T00:04:48.134Z,18.50
2023-10-09T00:07:18.293Z,18.60
2023-10-09T00:09:48.086Z,18.50
2023-10-09T00:12:24.155Z,18.50
2023-10-09T00:14:56.955Z,18.50
2023-10-09T00:17:25.621Z,18.50
2023-10-09T00:19:53.576Z,18.50
2023-10-09T00:22:30.532Z,18.50
2023-10-09T00:25:24.012Z,18.40
2023-10-09T00:27:50.998Z,18.40
2023-10-09T00:30:30.779Z,18.40
2023-10-09T00:33:02.310Z,18.40
2023-10-09T00:35:44.780Z,18.40
2023-10-09T00:38:23.785Z,18.40
2023-10-09T00:41:08.803Z,18.30
2023-10-09T00:43:37.830Z,18.30
2023-10-09T00:46:20.847Z,18.40
2023-10-09T00:51:47.507Z,18.40
2023-10-09T00:54:16.321Z,18.40
2023-10-09T01:05:23.095Z,18.30
2023-10-09T01:07:55.769Z,18.30
2023-10-09T01:10:23.176Z,18.30
2023-10-09T01:12:56.138Z,18.30
2023-10-09T01:15:44.890Z,18.40
2023-10-09T01:18:12.378Z,18.40
2023-10-09T01:20:46.582Z,18.30
2023-10-09T01:23:13.941Z,18.30
2023-10-09T01:25:45.444Z,18.30
2023-10-09T01:28:16.798Z,18.30
2023-10-09T01:30:44.569Z,18.30
2023-10-09T01:33:17.145Z,18.30
2023-10-09T01:35:49.383Z,18.20
2023-10-09T01:38:32.093Z,18.20
2023-10-09T01:41:08.036Z,18.20
2023-10-09T01:43:35.544Z,18.20
2023-10-09T01:46:02.873Z,18.20
2023-10-09T01:48:33.541Z,18.20
2023-10-09T01:51:01.209Z,18.20
2023-10-09T01:53:31.238Z,18.20
2023-10-09T01:56:00.429Z,18.30
2023-10-09T01:58:28.370Z,18.30
2023-10-09T02:00:58.284Z,18.30
2023-10-09T02:03:26.289Z,18.30
2023-10-09T02:06:19.590Z,18.30
2023-10-09T02:08:51.277Z,18.30
2023-10-09T02:11:36.561Z,18.30
2023-10-09T02:14:20.181Z,18.30
2023-10-09T02:17:09.093Z,18.40
2023-10-09T02:19:36.479Z,18.30
2023-10-09T02:22:13.771Z,18.30
2023-10-09T02:24:58.936Z,18.30
2023-10-09T02:27:49.747Z,18.40
2023-10-09T02:30:17.087Z,18.30
2023-10-09T02:32:45.637Z,18.30
2023-10-09T02:35:32.497Z,18.30
2023-10-09T02:37:59.633Z,18.30
2023-10-09T02:40:34.663Z,18.30
2023-10-09T02:43:01.625Z,18.30
2023-10-09T02:45:36.060Z,18.20
2023-10-09T02:48:11.934Z,18.20
2023-10-09T02:50:40.041Z,18.20
2023-10-09T02:53:19.520Z,18.10
2023-10-09T02:56:06.872Z,18.10
2023-10-09T02:58:37.768Z,18.10
2023-10-09T03:01:09.964Z,18.10
2023-10-09T03:03:37.043Z,18.10
2023-10-09T03:06:11.949Z,18.10
2023-10-09T03:08:41.834Z,18.10
2023-10-09T03:11:14.337Z,18.10
2023-10-09T03:13:45.952Z,18.10
2023-10-09T03:16:17.792Z,18.10
2023-10-09T03:18:46.128Z,18.10
2023-10-09T03:21:12.989Z,18.10
2023-10-09T03:23:39.888Z,18.10
2023-10-09T03:26:21.023Z,18.10
2023-10-09T03:28:50.428Z,18.10
2023-10-09T03:31:17.408Z,18.10
2023-10-09T03:33:44.388Z,18.10
2023-10-09T03:36:11.551Z,18.00
2023-10-09T03:38:39.843Z,18.00
2023-10-09T03:41:08.110Z,18.00
2023-10-09T03:43:41.936Z,18.00
2023-10-09T03:46:21.440Z,18.00
2023-10-09T03:48:58.803Z,18.00
2023-10-09T03:51:27.400Z,17.90
2023-10-09T03:53:54.824Z,17.90
2023-10-09T03:56:22.577Z,17.90
2023-10-09T03:58:52.080Z,17.90
2023-10-09T04:01:41.655Z,17.90
2023-10-09T04:04:11.705Z,17.90
2023-10-09T04:06:39.076Z,17.90
2023-10-09T04:09:34.680Z,17.90
2023-10-09T04:12:21.898Z,17.90
2023-10-09T04:14:51.853Z,17.90
2023-10-09T04:17:31.049Z,17.90
2023-10-09T04:20:16.017Z,17.90
2023-10-09T04:22:51.865Z,18.00
2023-10-09T04:25:26.731Z,17.90
2023-10-09T04:28:10.410Z,17.90
2023-10-09T04:30:41.900Z,17.90
2023-10-09T04:33:31.229Z,17.90
2023-10-09T04:36:21.669Z,17.90
2023-10-09T04:39:16.456Z,17.90
2023-10-09T04:41:43.860Z,17.90
2023-10-09T04:44:21.402Z,17.90
2023-10-09T04:47:11.259Z,17.90
2023-10-09T04:49:49.515Z,17.80
2023-10-09T04:52:26.834Z,17.80
2023-10-09T04:55:16.119Z,17.80
2023-10-09T04:57:45.230Z,17.80
2023-10-09T05:00:28.499Z,17.70
2023-10-09T05:03:12.573Z,17.80
2023-10-09T05:05:44.419Z,17.70
2023-10-09T05:08:29.849Z,17.70
2023-10-09T05:11:04.771Z,17.70
2023-10-09T05:13:41.028Z,17.60
2023-10-09T05:16:20.723Z,17.70
2023-10-09T05:18:58.021Z,17.70
2023-10-09T05:21:33.991Z,17.60
2023-10-09T05:24:15.203Z,17.70
2023-10-09T05:26:50.614Z,17.60
2023-10-09T05:29:35.362Z,17.60
2023-10-09T05:32:16.642Z,17.70
2023-10-09T05:35:01.760Z,17.70
2023-10-09T05:37:36.109Z,17.60
2023-10-09T05:40:19.562Z,17.70
2023-10-09T05:42:58.922Z,17.70
2023-10-09T05:45:46.380Z,17.70
2023-10-09T05:48:19.277Z,17.70
2023-10-09T05:51:05.022Z,17.70
2023-10-09T05:53:47.027Z,17.60
2023-10-09T05:56:33.097Z,17.60
2023-10-09T05:59:18.841Z,17.60
2023-10-09T06:01:51.908Z,17.50
2023-10-09T06:04:21.059Z,17.50
2023-10-09T06:06:57.901Z,17.60
2023-10-09T06:09:45.203Z,17.60
2023-10-09T06:12:31.032Z,17.50
2023-10-09T06:15:20.029Z,17.50
2023-10-09T06:17:53.810Z,17.60
2023-10-09T06:20:39.520Z,17.60
2023-10-09T06:23:24.861Z,17.60
2023-10-09T06:26:03.865Z,17.70
2023-10-09T06:28:36.551Z,17.70
2023-10-09T06:31:23.407Z,17.80
2023-10-09T06:34:10.400Z,17.80
2023-10-09T06:36:47.165Z,17.90
2023-10-09T06:39:32.823Z,17.90
2023-10-09T06:42:10.943Z,18.00
2023-10-09T06:44:56.025Z,18.10
2023-10-09T06:47:25.301Z,18.20
2023-10-09T06:50:10.856Z,18.20
2023-10-09T06:52:56.515Z,18.30
2023-10-09T06:55:33.915Z,18.40
2023-10-09T06:58:11.405Z,18.50
2023-10-09T07:00:53.348Z,18.60
2023-10-09T07:03:21.156Z,18.70
2023-10-09T07:06:06.339Z,18.80
2023-10-09T07:08:33.472Z,18.80
2023-10-09T07:11:37.316Z,18.90
2023-10-09T07:14:04.332Z,19.00
2023-10-09T07:16:39.384Z,19.10
2023-10-09T07:19:25.527Z,19.10
2023-10-09T07:21:55.371Z,19.20
2023-10-09T07:24:39.023Z,19.30
2023-10-09T07:27:13.151Z,19.50
2023-10-09T07:29:49.253Z,19.70
2023-10-09T07:32:22.122Z,20.00
2023-10-09T07:34:55.087Z,20.30
2023-10-09T07:37:24.729Z,20.60
2023-10-09T07:39:58.776Z,20.70
2023-10-09T07:42:39.554Z,20.90
2023-10-09T07:45:27.304Z,21.10
2023-10-09T07:48:15.748Z,21.40
2023-10-09T07:50:49.524Z,21.90
2023-10-09T07:53:26.967Z,22.50
2023-10-09T07:55:59.942Z,23.20
2023-10-09T07:58:27.415Z,23.70
2023-10-09T08:01:31.633Z,24.00
2023-10-09T08:03:58.943Z,24.00
2023-10-09T08:06:43.402Z,24.00
2023-10-09T08:09:47.399Z,24.10
2023-10-09T08:12:36.730Z,24.10
2023-10-09T08:15:20.672Z,24.00
2023-10-09T08:18:14.909Z,23.90
2023-10-09T08:21:04.714Z,23.90
2023-10-09T08:23:34.652Z,23.90
2023-10-09T08:26:14.955Z,23.90
2023-10-09T08:28:46.624Z,23.80
2023-10-09T08:31:20.803Z,23.80
2023-10-09T08:36:37.762Z,23.70
2023-10-09T08:39:24.118Z,23.60
2023-10-09T08:41:53.131Z,23.70
2023-10-09T08:44:26.100Z,23.70
2023-10-09T08:46:55.691Z,23.70
2023-10-09T08:49:23.044Z,23.80
2023-10-09T08:51:50.455Z,23.80
2023-10-09T08:54:18.151Z,23.90
2023-10-09T08:56:53.385Z,24.00
2023-10-09T08:59:21.791Z,24.10
2023-10-09T09:01:50.712Z,24.10
2023-10-09T09:04:41.284Z,24.20
2023-10-09T09:07:32.856Z,24.20
2023-10-09T09:10:19.331Z,24.20
2023-10-09T09:12:46.800Z,24.10
2023-10-09T09:15:21.175Z,24.10
2023-10-09T09:17:50.724Z,24.10
2023-10-09T09:20:35.841Z,24.10
2023-10-09T09:23:05.757Z,24.10
2023-10-09T09:25:49.629Z,24.10
2023-10-09T09:28:23.224Z,24.10
2023-10-09T09:30:52.988Z,24.10
2023-10-09T09:33:40.925Z,24.10
2023-10-09T09:36:08.552Z,24.10
2023-10-09T09:38:57.239Z,24.10
2023-10-09T09:41:27.048Z,24.20
2023-10-09T09:44:04.003Z,24.20
2023-10-09T09:46:36.155Z,24.30
2023-10-09T09:49:17.787Z,24.40
2023-10-09T09:51:47.744Z,24.40
2023-10-09T09:54:19.185Z,24.50
2023-10-09T09:56:53.125Z,24.50
2023-10-09T09:59:23.143Z,24.60
2023-10-09T10:02:07.958Z,24.60
2023-10-09T10:04:39.935Z,24.60
2023-10-09T10:07:13.646Z,24.60
2023-10-09T10:09:45.937Z,24.60
2023-10-09T10:12:15.506Z,24.60
2023-10-09T10:15:00.275Z,24.70
2023-10-09T10:17:30.546Z,24.70
2023-10-09T10:20:19.078Z,24.80
2023-10-09T10:22:49.190Z,24.80
2023-10-09T10:25:34.115Z,24.90
2023-10-09T10:28:17.491Z,25.00
2023-10-09T10:30:48.380Z,25.00
2023-10-09T10:33:17.469Z,25.10
2023-10-09T10:35:44.858Z,25.20
2023-10-09T10:38:38.044Z,25.30
2023-10-09T10:41:18.201Z,25.40
2023-10-09T10:43:54.419Z,25.50
2023-10-09T10:46:31.114Z,25.50
2023-10-09T10:49:16.710Z,25.60
2023-10-09T10:51:50.238Z,25.60
2023-10-09T10:54:34.457Z,25.60
2023-10-09T10:57:01.823Z,25.60
2023-10-09T10:59:37.991Z,25.60
2023-10-09T11:02:12.356Z,25.60
2023-10-09T11:04:42.419Z,25.60
2023-10-09T11:07:25.284Z,25.60
2023-10-09T11:10:07.902Z,25.60
2023-10-09T11:13:07.957Z,25.70
2023-10-09T11:15:47.496Z,25.70
2023-10-09T11:18:26.666Z,25.80
2023-10-09T11:20:58.592Z,25.80
2023-10-09T11:23:46.421Z,25.80
2023-10-09T11:26:24.886Z,25.80
2023-10-09T11:29:20.050Z,25.80
2023-10-09T11:32:09.067Z,25.90
2023-10-09T11:34:37.564Z,25.90
2023-10-09T11:37:27.140Z,26.00
2023-10-09T11:39:57.065Z,26.10
2023-10-09T11:42:39.181Z,26.20
2023-10-09T11:45:26.084Z,26.30
2023-10-09T11:48:01.145Z,26.30
2023-10-09T11:50:52.585Z,26.40
2023-10-09T11:53:23.589Z,26.40
2023-10-09T11:55:53.516Z,26.50
2023-10-09T11:58:24.577Z,26.50
2023-10-09T12:01:06.145Z,26.60
2023-10-09T12:03:34.340Z,26.50
2023-10-09T12:06:07.927Z,26.60
2023-10-09T12:08:36.015Z,26.50
2023-10-09T12:11:09.527Z,26.50
2023-10-09T12:13:39.843Z,26.50
2023-10-09T12:16:12.578Z,26.50
2023-10-09T12:18:40.717Z,26.50
2023-10-09T12:21:08.622Z,26.50
2023-10-09T12:23:38.404Z,26.50
2023-10-09T12:26:06.084Z,26.40
2023-10-09T12:28:36.036Z,26.40
2023-10-09T12:31:05.267Z,26.40
2023-10-09T12:33:32.442Z,26.40
2023-10-09T12:36:02.718Z,26.30
2023-10-09T12:38:33.514Z,26.20
2023-10-09T12:41:26.460Z,26.20
2023-10-09T12:43:54.869Z,26.20
2023-10-09T12:46:27.075Z,26.10
2023-10-09T12:48:57.289Z,26.10
2023-10-09T12:51:31.243Z,26.10
2023-10-09T12:53:58.765Z,26.00
2023-10-09T12:56:33.951Z,25.90
2023-10-09T12:59:02.897Z,25.80
2023-10-09T13:01:33.252Z,25.80
2023-10-09T13:04:12.510Z,25.70
2023-10-09T13:06:46.220Z,25.60
2023-10-09T13:09:15.509Z,25.60
2023-10-09T13:11:44.537Z,25.50
2023-10-09T13:14:18.839Z,25.50
2023-10-09T13:16:47.117Z,25.40
2023-10-09T13:19:14.237Z,25.40
2023-10-09T13:21:41.511Z,25.30
2023-10-09T13:24:17.093Z,25.20
2023-10-09T13:26:52.496Z,25.20
2023-10-09T13:29:25.690Z,25.20
2023-10-09T13:31:58.944Z,25.10
2023-10-09T13:34:29.388Z,25.10
2023-10-09T13:37:00.047Z,25.00
2023-10-09T13:39:27.880Z,25.10
2023-10-09T13:42:01.450Z,25.00
2023-10-09T13:44:34.266Z,25.00
2023-10-09T13:47:06.438Z,24.90
2023-10-09T13:49:34.302Z,24.90
2023-10-09T13:52:04.048Z,24.80
2023-10-09T13:54:34.955Z,24.80
2023-10-09T13:57:06.186Z,24.80
2023-10-09T13:59:36.421Z,24.70
2023-10-09T14:02:11.506Z,24.60
2023-10-09T14:04:39.213Z,24.60
2023-10-09T14:07:09.644Z,24.50
2023-10-09T14:09:45.942Z,24.30
2023-10-09T14:12:15.513Z,23.90
2023-10-09T14:14:48.530Z,23.50
2023-10-09T14:17:27.044Z,23.10
2023-10-09T14:20:17.491Z,22.80
2023-10-09T14:22:46.598Z,22.40
2023-10-09T14:25:16.555Z,22.10
2023-10-09T14:27:43.771Z,21.80
2023-10-09T14:30:20.049Z,21.60
2023-10-09T14:32:52.855Z,21.40
2023-10-09T14:35:22.906Z,21.30
2023-10-09T14:37:49.940Z,21.20
2023-10-09T14:40:22.295Z,21.20
2023-10-09T14:42:55.842Z,21.20
2023-10-09T14:45:26.696Z,21.10
2023-10-09T14:47:56.884Z,21.20
2023-10-09T14:50:24.187Z,21.20
2023-10-09T14:52:51.949Z,21.30
2023-10-09T14:55:22.167Z,21.30
2023-10-09T14:57:51.273Z,21.30
2023-10-09T15:00:24.349Z,21.40
2023-10-09T15:02:52.873Z,21.40
2023-10-09T15:05:19.899Z,21.50
2023-10-09T15:07:47.754Z,21.50
2023-10-09T15:10:19.378Z,21.50
2023-10-09T15:12:49.787Z,21.50
2023-10-09T15:15:17.743Z,21.60
2023-10-09T15:17:45.493Z,21.60
2023-10-09T15:20:15.967Z,21.60
2023-10-09T15:22:43.946Z,21.70
2023-10-09T15:25:21.118Z,21.70
2023-10-09T15:27:48.006Z,21.70
2023-10-09T15:30:15.526Z,21.70
2023-10-09T15:32:44.047Z,21.70
2023-10-09T15:35:14.148Z,21.70
2023-10-09T15:37:42.760Z,21.80
2023-10-09T15:40:19.230Z,21.80
2023-10-09T15:42:57.170Z,21.80
2023-10-09T15:45:25.354Z,21.80
2023-10-09T15:47:53.149Z,21.80
2023-10-09T15:50:24.002Z,21.80
2023-10-09T15:52:56.833Z,21.80
2023-10-09T15:55:26.977Z,21.80
2023-10-09T15:57:55.218Z,21.90
2023-10-09T16:00:29.497Z,21.90
2023-10-09T16:02:57.798Z,21.90
2023-10-09T16:05:27.031Z,21.90
2023-10-09T16:07:56.294Z,22.00
2023-10-09T16:10:24.331Z,22.00
2023-10-09T16:12:54.063Z,22.00
2023-10-09T16:15:21.720Z,22.00
2023-10-09T16:17:50.203Z,22.00
2023-10-09T16:20:22.905Z,22.00
2023-10-09T16:22:50.861Z,22.00
2023-10-09T16:25:21.778Z,22.00
2023-10-09T16:27:48.982Z,22.00
2023-10-09T16:30:22.099Z,22.00
2023-10-09T16:32:51.785Z,22.00
2023-10-09T18:23:12.024Z,21.60
2023-10-09T18:25:41.400Z,21.60
2023-10-09T18:28:08.368Z,21.60
2023-10-09T18:30:40.436Z,21.60
2023-10-09T18:33:07.690Z,21.60
2023-10-09T18:35:35.315Z,21.60
2023-10-09T18:38:02.393Z,21.60
2023-10-09T18:40:32.551Z,21.60
2023-10-09T18:43:09.554Z,21.60
2023-10-09T18:45:43.808Z,21.60
2023-10-09T18:48:12.356Z,21.50
2023-10-09T18:50:42.874Z,21.60
2023-10-09T18:53:11.360Z,21.60
2023-10-09T18:55:38.849Z,21.60
2023-10-09T18:58:12.761Z,21.60
2023-10-09T19:00:50.143Z,21.50
2023-10-09T19:03:18.260Z,21.50
2023-10-09T19:05:46.146Z,21.50
2023-10-09T19:08:13.595Z,21.50
2023-10-09T19:10:45.411Z,21.60
2023-10-09T19:13:13.388Z,21.50
2023-10-09T19:15:42.315Z,21.60
2023-10-09T19:20:46.288Z,21.50
2023-10-09T19:23:13.755Z,21.50
2023-10-09T19:25:44.422Z,21.50
2023-10-09T19:28:13.351Z,21.60
2023-10-09T19:30:40.395Z,21.60
2023-10-09T19:33:07.378Z,21.60
2023-10-09T19:35:39.621Z,21.60
2023-10-09T19:38:09.264Z,21.60
2023-10-09T19:40:36.606Z,21.60
2023-10-09T19:43:06.110Z,21.60
2023-10-09T19:45:33.179Z,21.60
2023-10-09T19:48:00.164Z,21.60
2023-10-09T19:50:27.175Z,21.60
2023-10-09T19:52:54.104Z,21.60
2023-10-09T19:55:22.943Z,21.60
2023-10-09T19:57:52.485Z,21.60
2023-10-09T20:00:23.260Z,21.60
2023-10-09T20:02:54.879Z,21.60
2023-10-09T20:05:24.178Z,21.60
2023-10-09T20:07:51.448Z,21.60
2023-10-09T20:10:19.720Z,21.60
2023-10-09T20:12:46.978Z,21.60
2023-10-09T20:15:14.819Z,21.60
2023-10-09T20:17:45.692Z,21.70
2023-10-09T20:20:13.256Z,21.70
2023-10-09T20:22:41.005Z,21.70
2023-10-09T20:25:14.176Z,21.70
2023-10-09T20:27:43.408Z,21.70
2023-10-09T20:30:14.808Z,21.70
2023-10-09T20:32:42.691Z,21.70
2023-10-09T20:35:13.581Z,21.70
2023-10-09T20:37:44.905Z,21.70
2023-10-09T20:40:21.860Z,21.70
2023-10-09T20:42:55.334Z,21.70
2023-10-09T20:45:22.858Z,21.70
2023-10-09T20:47:59.503Z,21.70
2023-10-09T20:50:27.595Z,21.70
2023-10-09T20:52:55.326Z,21.70
2023-10-09T20:55:24.547Z,21.70
2023-10-09T20:57:59.272Z,21.70
2023-10-09T21:00:28.502Z,21.80
2023-10-09T21:02:56.527Z,21.80
2023-10-09T21:05:24.695Z,21.70
2023-10-09T21:07:55.337Z,21.80
2023-10-09T21:10:22.759Z,21.80
2023-10-09T21:12:51.268Z,21.80
2023-10-09T21:15:22.171Z,21.80
2023-10-09T21:17:53.711Z,21.80
2023-10-09T21:20:21.032Z,21.80
2023-10-09T21:22:55.323Z,21.70
2023-10-09T21:25:25.116Z,21.70
2023-10-09T21:27:55.584Z,21.80
2023-10-09T21:30:24.634Z,21.80
2023-10-09T21:32:54.946Z,21.70
2023-10-09T21:35:22.985Z,21.70
2023-10-09T21:37:56.789Z,21.80
2023-10-09T21:40:32.032Z,21.70
2023-10-09T21:43:08.656Z,21.70
2023-10-09T21:45:45.827Z,21.70
2023-10-09T21:48:13.430Z,21.70
2023-10-09T21:50:42.613Z,21.70
2023-10-09T21:53:09.608Z,21.70
2023-10-09T21:55:37.117Z,21.70
2023-10-09T21:58:08.491Z,21.70
2023-10-09T22:00:37.345Z,21.60
2023-10-09T22:03:09.749Z,21.60
2023-10-09T22:05:43.864Z,21.60
2023-10-09T22:08:15.666Z,21.60
2023-10-09T22:10:45.020Z,21.60
2023-10-09T22:13:12.715Z,21.60
2023-10-09T22:15:40.025Z,21.60
2023-10-09T22:18:12.147Z,21.60
2023-10-09T22:20:40.459Z,21.50
2023-10-09T22:23:14.790Z,21.50
2023-10-09T22:25:46.254Z,21.50
2023-10-09T22:28:13.473Z,21.50
2023-10-09T22:30:44.285Z,21.50
2023-10-09T22:33:21.091Z,21.50
2023-10-09T22:35:48.439Z,21.50
2023-10-09T22:38:21.818Z,21.40
2023-10-09T22:40:52.929Z,21.40
2023-10-09T22:43:24.932Z,21.40
2023-10-09T22:45:53.284Z,21.40
2023-10-09T22:48:27.571Z,21.40
2023-10-09T22:51:10.811Z,21.40
2023-10-09T22:53:39.990Z,21.30
2023-10-09T22:56:13.719Z,21.40
2023-10-09T22:58:51.801Z,21.30
2023-10-09T23:01:24.776Z,21.30
2023-10-09T23:04:16.421Z,21.30
2023-10-09T23:06:49.952Z,21.30
2023-10-09T23:09:17.583Z,21.30
2023-10-09T23:11:55.017Z,21.30
2023-10-09T23:14:27.046Z,21.30
2023-10-09T23:17:08.663Z,21.30
2023-10-09T23:19:45.363Z,21.30
2023-10-09T23:22:21.716Z,21.30
2023-10-09T23:25:09.439Z,21.30
2023-10-09T23:27:39.272Z,21.30
2023-10-09T23:30:24.933Z,21.30
2023-10-09T23:33:12.549Z,21.30
2023-10-09T23:36:07.515Z,21.30
2023-10-09T23:38:35.906Z,21.30
2023-10-09T23:41:13.208Z,21.30
2023-10-09T23:43:46.363Z,21.30
2023-10-09T23:46:18.189Z,21.30
2023-10-09T23:48:45.949Z,21.30
2023-10-09T23:51:20.029Z,21.20
2023-10-09T23:53:53.185Z,21.20
2023-10-09T23:56:40.902Z,21.20
2023-10-09T23:59:12.861Z,21.20
